createdAt,value
2023-11-30T00:00:48.691Z,0.56
2023-11-30T00:05:50.184Z,0.54
2023-11-30T00:10:51.639Z,0.44
2023-11-30T00:15:53.031Z,0.48
2023-11-30T00:20:54.500Z,0.44
2023-11-30T00:25:56.055Z,0.42
2023-11-30T00:30:57.874Z,0.39
2023-11-30T00:35:59.267Z,0.41
2023-11-30T00:41:00.796Z,0.26
2023-11-30T00:46:09.384Z,0.40
2023-11-30T00:51:12.482Z,0.46
2023-11-30T00:56:14.491Z,0.48
2023-11-30T01:01:15.960Z,0.48
2023-11-30T01:06:17.380Z,0.42
2023-11-30T01:11:18.931Z,0.38
2023-11-30T01:16:20.420Z,0.46
2023-11-30T01:21:21.923Z,0.49
2023-11-30T01:26:23.706Z,0.52
2023-11-30T01:31:25.116Z,0.46
2023-11-30T01:36:26.611Z,0.49
2023-11-30T01:41:28.026Z,0.51
2023-11-30T01:46:31.364Z,0.49
2023-11-30T01:51:33.487Z,0.44
2023-11-30T01:56:38.447Z,0.43
2023-11-30T02:01:41.320Z,0.46
2023-11-30T02:06:46.786Z,0.42
2023-11-30T02:11:48.229Z,0.39
2023-11-30T02:16:49.669Z,0.45
2023-11-30T02:21:52.313Z,0.45
2023-11-30T02:26:53.834Z,0.43
2023-11-30T02:31:55.225Z,0.44
2023-11-30T02:36:56.761Z,0.38
2023-11-30T02:41:58.188Z,0.36
2023-11-30T02:46:59.579Z,0.44
2023-11-30T02:52:01.050Z,0.32
2023-11-30T02:57:02.472Z,0.38
2023-11-30T03:02:04.556Z,0.53
2023-11-30T03:07:06.079Z,0.50
2023-11-30T03:12:08.185Z,0.56
2023-11-30T03:17:09.677Z,0.58
2023-11-30T03:22:11.297Z,0.50
2023-11-30T03:27:12.792Z,0.45
2023-11-30T03:32:14.339Z,0.57
2023-11-30T03:37:15.851Z,0.68
2023-11-30T03:42:17.307Z,0.59
2023-11-30T03:47:18.823Z,0.64
2023-11-30T03:52:20.273Z,0.68
2023-11-30T03:57:21.775Z,0.83
2023-11-30T04:02:23.272Z,0.78
2023-11-30T04:07:24.702Z,0.77
2023-11-30T04:12:26.193Z,0.75
2023-11-30T04:17:27.628Z,0.65
2023-11-30T04:22:29.134Z,0.69
2023-11-30T04:27:30.648Z,0.83
2023-11-30T04:32:32.194Z,0.72
2023-11-30T04:37:33.557Z,0.83
2023-11-30T04:42:35.086Z,0.74
2023-11-30T04:47:36.540Z,0.84
2023-11-30T04:52:38.029Z,0.71
2023-11-30T04:57:39.434Z,0.73
2023-11-30T05:02:50.803Z,0.81
2023-11-30T05:07:52.797Z,0.80
2023-11-30T05:12:54.300Z,0.77
2023-11-30T05:17:55.781Z,0.79
2023-11-30T05:22:57.240Z,0.80
2023-11-30T05:27:59.643Z,0.94
2023-11-30T05:33:01.227Z,0.89
2023-11-30T05:38:03.105Z,1.02
2023-11-30T05:43:04.893Z,1.05
2023-11-30T05:48:06.749Z,0.93
2023-11-30T05:53:08.230Z,0.93
2023-11-30T05:58:09.604Z,1.01
2023-11-30T06:03:11.231Z,0.88
2023-11-30T06:08:12.692Z,0.99
2023-11-30T06:13:14.216Z,0.91
2023-11-30T06:18:15.866Z,0.95
2023-11-30T06:23:17.574Z,1.16
2023-11-30T06:28:19.393Z,1.14
2023-11-30T06:33:21.122Z,1.07
2023-11-30T06:38:22.529Z,1.03
2023-11-30T06:43:24.047Z,1.04
2023-11-30T06:48:25.663Z,1.09
2023-11-30T06:53:27.314Z,1.08
2023-11-30T06:58:28.902Z,1.08
2023-11-30T07:03:31.160Z,1.11
2023-11-30T07:08:32.904Z,1.01
2023-11-30T07:13:34.514Z,1.28
2023-11-30T07:18:36.204Z,1.26
2023-11-30T07:23:38.130Z,1.33
2023-11-30T07:28:40.070Z,1.20
2023-11-30T07:33:41.707Z,1.29
2023-11-30T07:38:43.371Z,1.30
2023-11-30T07:43:45.093Z,1.24
2023-11-30T07:48:50.572Z,1.37
2023-11-30T07:53:52.599Z,1.37
2023-11-30T07:58:54.235Z,1.47
2023-11-30T08:03:56.112Z,1.30
2023-11-30T08:08:57.769Z,1.49
2023-11-30T08:13:59.357Z,1.58
2023-11-30T08:19:01.130Z,1.65
2023-11-30T08:24:06.077Z,1.85
2023-11-30T08:29:07.718Z,1.84
2023-11-30T08:34:10.168Z,1.98
2023-11-30T08:39:11.797Z,1.96
2023-11-30T08:44:13.443Z,2.30
2023-11-30T08:49:15.392Z,2.31
2023-11-30T08:54:17.065Z,2.51
2023-11-30T08:59:19.356Z,2.28
2023-11-30T09:04:24.067Z,2.33
2023-11-30T09:09:25.533Z,2.39
2023-11-30T09:14:27.047Z,2.53
2023-11-30T09:19:28.596Z,2.75
2023-11-30T09:24:33.105Z,2.63
2023-11-30T09:29:36.659Z,2.71
2023-11-30T09:34:38.194Z,2.72
2023-11-30T09:39:39.837Z,2.77
2023-11-30T09:44:41.284Z,2.70
2023-11-30T09:49:43.092Z,3.10
2023-11-30T09:54:44.543Z,3.30
2023-11-30T09:59:45.980Z,3.33
2023-11-30T10:04:47.379Z,3.60
2023-11-30T10:09:49.140Z,3.81
2023-11-30T10:14:59.978Z,4.09
2023-11-30T10:20:01.446Z,4.15
2023-11-30T10:25:02.922Z,4.07
2023-11-30T10:30:05.216Z,4.09
2023-11-30T10:35:16.870Z,4.05
2023-11-30T10:40:19.210Z,4.13
2023-11-30T10:45:21.579Z,4.18
2023-11-30T10:50:23.466Z,4.10
2023-11-30T10:55:50.098Z,4.44
2023-11-30T11:00:58.154Z,4.80
2023-11-30T11:06:04.013Z,4.92
2023-11-30T11:11:11.278Z,5.36
2023-11-30T11:16:12.864Z,5.61
2023-11-30T11:21:25.719Z,5.54
2023-11-30T11:26:27.307Z,5.44
2023-11-30T11:31:28.875Z,5.59
2023-11-30T11:36:30.473Z,5.48
2023-11-30T11:41:32.664Z,5.49
2023-11-30T11:46:34.912Z,5.44
2023-11-30T11:51:46.519Z,5.54
2023-11-30T11:56:52.646Z,5.50
2023-11-30T12:01:55.417Z,5.59
2023-11-30T12:06:57.989Z,5.41
2023-11-30T12:11:59.509Z,5.11
2023-11-30T12:17:04.296Z,5.32
2023-11-30T12:22:05.846Z,5.20
2023-11-30T12:27:07.430Z,5.19
2023-11-30T12:32:08.871Z,5.28
2023-11-30T12:37:13.223Z,5.19
2023-11-30T12:42:14.730Z,5.32
2023-11-30T12:47:16.420Z,5.61
2023-11-30T12:52:17.796Z,5.45
2023-11-30T12:57:20.232Z,5.50
2023-11-30T13:02:21.697Z,5.75
2023-11-30T13:07:23.493Z,5.92
2023-11-30T13:12:25.080Z,5.89
2023-11-30T13:17:26.599Z,5.90
2023-11-30T13:22:28.122Z,5.83
2023-11-30T13:27:29.586Z,5.84
2023-11-30T13:32:34.539Z,5.72
2023-11-30T13:37:44.609Z,5.65
2023-11-30T13:42:46.380Z,5.32
2023-11-30T13:47:47.836Z,5.26
2023-11-30T13:52:49.446Z,5.15
2023-11-30T13:57:51.174Z,5.04
2023-11-30T14:02:52.633Z,4.90
2023-11-30T14:07:55.178Z,4.77
2023-11-30T14:12:56.644Z,4.66
2023-11-30T14:17:58.128Z,4.65
2023-11-30T14:22:59.644Z,4.59
2023-11-30T14:28:05.294Z,4.48
2023-11-30T14:33:14.152Z,4.46
2023-11-30T14:38:15.783Z,4.39
2023-11-30T14:43:17.217Z,4.29
2023-11-30T14:48:18.748Z,4.20
2023-11-30T14:53:20.660Z,4.06
2023-11-30T14:58:22.069Z,3.91
2023-11-30T15:03:23.510Z,3.85
2023-11-30T15:08:25.106Z,3.64
2023-11-30T15:13:26.530Z,3.52
2023-11-30T15:18:28.031Z,3.38
2023-11-30T15:23:29.454Z,3.29
2023-11-30T15:28:30.871Z,3.05
2023-11-30T15:33:32.863Z,2.78
2023-11-30T15:38:34.406Z,2.68
2023-11-30T15:43:36.429Z,2.42
2023-11-30T15:48:38.005Z,2.32
2023-11-30T15:53:39.586Z,2.21
2023-11-30T15:58:41.084Z,2.05
2023-11-30T16:03:42.839Z,1.94
2023-11-30T16:08:44.351Z,1.85
2023-11-30T16:13:46.321Z,1.87
2023-11-30T16:18:47.759Z,1.76
2023-11-30T16:23:49.705Z,1.65
2023-11-30T16:28:51.259Z,1.56
2023-11-30T16:33:52.817Z,1.52
2023-11-30T16:38:54.336Z,1.52
2023-11-30T16:43:55.756Z,1.49
2023-11-30T16:48:58.838Z,1.54
2023-11-30T16:54:00.447Z,1.50
2023-11-30T16:59:02.022Z,1.44
2023-11-30T17:04:06.757Z,1.43
2023-11-30T17:09:08.376Z,1.39
2023-11-30T17:14:09.819Z,1.37
2023-11-30T17:19:11.311Z,1.37
2023-11-30T17:24:12.878Z,1.37
2023-11-30T17:29:14.342Z,1.26
2023-11-30T17:34:15.937Z,1.21
2023-11-30T17:39:17.949Z,1.11
2023-11-30T17:44:19.784Z,0.97
2023-11-30T17:49:21.155Z,0.87
2023-11-30T17:54:22.647Z,0.89
2023-11-30T17:59:24.471Z,0.82
2023-11-30T18:04:25.893Z,0.78
2023-11-30T18:09:28.043Z,0.76
2023-11-30T18:14:29.740Z,0.65
2023-11-30T18:19:32.245Z,0.57
2023-11-30T18:24:33.687Z,0.62
2023-11-30T18:29:35.213Z,0.54
2023-11-30T18:34:36.691Z,0.66
2023-11-30T18:39:38.160Z,0.79
2023-11-30T18:44:39.632Z,0.84
2023-11-30T18:49:41.929Z,1.00
2023-11-30T18:54:43.960Z,1.04
2023-11-30T18:59:45.406Z,1.10
2023-11-30T19:04:46.838Z,1.00
2023-11-30T19:09:48.234Z,1.04
2023-11-30T19:14:49.644Z,1.08
2023-11-30T19:19:51.133Z,1.03
2023-11-30T19:24:52.576Z,1.02
2023-11-30T19:29:54.024Z,1.03
2023-11-30T19:34:55.462Z,0.98
2023-11-30T19:39:58.266Z,0.96
2023-11-30T19:45:00.433Z,0.86
2023-11-30T19:50:02.256Z,0.78
2023-11-30T19:55:04.722Z,0.68
2023-11-30T20:00:06.773Z,0.62
2023-11-30T20:05:08.405Z,0.57
2023-11-30T20:10:10.076Z,0.56
2023-11-30T20:15:11.911Z,0.54
2023-11-30T20:20:13.572Z,0.62
2023-11-30T20:25:15.007Z,0.73
2023-11-30T20:30:16.551Z,0.72
2023-11-30T20:35:18.005Z,0.71
2023-11-30T20:40:20.199Z,0.51
2023-11-30T20:45:21.716Z,0.43
2023-11-30T20:50:23.659Z,0.31
2023-11-30T20:55:25.177Z,0.27
2023-11-30T21:00:26.686Z,0.36
2023-11-30T21:05:28.643Z,0.52
2023-11-30T21:10:30.136Z,0.44
2023-11-30T21:15:31.601Z,0.47
2023-11-30T21:20:33.213Z,0.57
2023-11-30T21:25:34.648Z,0.72
2023-11-30T21:30:36.164Z,0.70
2023-11-30T21:35:37.742Z,0.75
2023-11-30T21:40:39.127Z,0.63
2023-11-30T21:45:40.711Z,0.63
2023-11-30T21:50:42.702Z,0.70
2023-11-30T21:55:44.188Z,0.72
2023-11-30T22:00:45.808Z,0.65
2023-11-30T22:05:47.378Z,0.69
2023-11-30T22:10:49.028Z,0.57
2023-11-30T22:15:57.211Z,0.57
2023-11-30T22:21:05.429Z,0.62
2023-11-30T22:26:07.028Z,0.47
2023-11-30T22:31:08.663Z,0.53
2023-11-30T22:36:10.648Z,0.54
2023-11-30T22:41:12.129Z,0.49
2023-11-30T22:46:17.642Z,0.21
2023-11-30T22:51:19.423Z,0.37
2023-11-30T22:56:23.487Z,0.32
2023-11-30T23:01:25.705Z,0.35
2023-11-30T23:06:27.271Z,0.46
2023-11-30T23:11:28.761Z,0.26
2023-11-30T23:16:30.269Z,0.32
2023-11-30T23:21:31.782Z,0.25
2023-11-30T23:26:33.731Z,0.16
2023-11-30T23:31:35.266Z,0.17
2023-11-30T23:36:36.800Z,0.14
2023-11-30T23:41:38.827Z,0.07
2023-11-30T23:46:40.320Z,-0.02
2023-11-30T23:51:42.201Z,-0.01
2023-11-30T23:56:43.673Z,0.02
